Edwards Creek Valley, Nevada Weather observations

Data are for observation ending at time listed.
 Day   Time    Ave.   Ave.  Ave.  Vector   Max.   Stn.    Total    Solar   Ave.  
  of    of     Air    Rel.  Wind   Wind    Wind   Baro.  Precip.   Rad.    Soil  
Year   Day     Temp.  Hum.  Speed  Dir.    Gust   Pres.                    Temp. 
2016   (PST)    F      %     mph   deg.    mph     mb.     in.     W/m2     F   
------------------------------------------------------------------------------
 149   18:30   60.3    49   12.6   153     17.8    844     0.00      21     80.0
 149   18:40   60.9    44   12.1   141     20.5    843     0.00      19     79.3
 149   18:50   61.1    44   10.3   146     17.7    843     0.00      13     78.6
 149   19:00   60.9    43    8.9   147     12.9    844     0.00      12     78.1
 149   19:10   60.7    45    8.5   159     13.5    844     0.00      10     77.5
 149   19:20   59.4    49    8.7   162     15.0    844     0.00       3     77.0
 149   19:30   58.9    50    8.8   160     13.4    843     0.00       1     76.6
 149   19:40   58.2    52    6.5   168     10.4    843     0.00       0     76.1
 149   19:50   56.8    57    5.1   175      7.5    844     0.00       0     75.7
 149   20:00   56.8    54    6.0   176      8.1    844     0.00       0     75.3
 149   20:10   57.6    50    4.0   200      8.1    844     0.00       0     74.8
 149   20:20   59.3    44    5.7   188     10.4    844     0.00       0     74.4
 149   20:30   58.6    46    6.2   179     10.8    844     0.00       0     74.1
 149   20:40   57.6    48    6.9   184     10.7    844     0.00       0     73.7
 149   20:50   58.8    44    7.6   181     11.8    844     0.00       0     73.3
 149   21:00   58.3    46    6.5   183      9.6    844     0.00       0     73.0
 149   21:10   57.0    49    4.5   154      9.2    844     0.00       0     72.6
 149   21:20   55.5    52    2.7   107      5.2    844     0.00       0     72.2
 149   21:30   54.8    54    4.2   176      6.7    844     0.00       0     71.9
 149   21:40   52.6    62    4.3   204      6.4    844     0.00       0     71.6
 149   21:50   51.5    63    2.4    83      4.9    844     0.00       0     71.3
 149   22:00   51.5    62    3.1   133      4.2    844     0.00       0     70.9
 149   22:10   50.8    63    3.7   173      4.7    844     0.00       0     70.6
 149   22:20   50.9    62    4.3   185      6.0    844     0.00       0     70.2
 149   22:30   51.8    58    5.0   187      6.9    844     0.00       0     69.9
 149   22:40   51.1    61    3.8   176      5.2    844     0.00       0     69.6
 149   22:50   51.8    60    3.0   161      5.6    844     0.00       0     69.3
 149   23:00   50.8    62    2.2   200      3.0    844     0.00       0     69.0
 149   23:10   50.2    65    3.1   191      4.2    844     0.00       0     68.8
 149   23:20   49.4    69    2.8   182      4.5    844     0.00       0     68.6
 149   23:30   50.0    67    3.4   175      4.7    844     0.00       0     68.4
 149   23:40   50.4    66    3.3   188      5.2    844     0.00       0     68.2
 149   23:50   50.5    66    1.1   204      3.8    844     0.00       0     68.0
 150    0:00   50.6    66    0.5   193      1.6    844     0.00       0     67.8
 150    0:10   50.4    66    1.6    77      2.6    844     0.00       0     67.6
 150    0:20   49.9    68    0.8   212      1.5    844     0.00       0     67.5
 150    0:30   48.5    71    2.5    32      3.5    844     0.00       0     67.3
 150    0:40   48.3    71    1.3     4      2.5    845     0.00       0     67.1
 150    0:50   49.5    67    1.5   302      2.1    844     0.00       0     66.9
 150    1:00   49.2    66    1.3   238      2.9    844     0.00       0     66.7
 150    1:10   45.8    72    2.0   247      2.8    844     0.00       0     66.4
 150    1:20   45.1    76    2.9   237      4.2    844     0.00       0     66.2
 150    1:30   45.4    76    2.8   218      4.6    844     0.00       0     65.9
 150    1:40   44.6    76    2.7   225      3.9    844     0.00       0     65.6
 150    1:50   43.8    79    2.8   182      3.4    844     0.00       0     65.4
 150    2:00   43.0    80    4.3   170      5.7    844     0.00       0     65.1
 150    2:10   43.0    79    4.2   174      5.8    844     0.00       0     64.8
 150    2:20   43.2    79    4.4   189      5.7    844     0.00       0     64.6
 150    2:30   43.0    78    4.5   173      5.4    844     0.00       0     64.3
 150    2:40   43.1    77    4.0   179      4.9    844     0.00       0     64.1
 150    2:50   42.4    78    3.6   186      4.9    844     0.00       0     63.8
 150    3:00   41.2    80    4.1   189      5.3    844     0.00       0     63.6
 150    3:10   41.4    79    3.9   185      5.0    844     0.00       0     63.3
 150    3:20   41.5    79    4.2   172      5.0    844     0.00       0     63.1
 150    3:30   41.7    79    4.9   160      6.3    844     0.00       0     62.9
 150    3:40   43.1    76    4.5   153      5.3    844     0.00       0     62.7
 150    3:50   43.3    75    4.0   157      4.8    844     0.00       0     62.4
 150    4:00   42.6    76    3.4   177      5.0    844     0.00       0     62.2
 150    4:10   41.2    78    2.6   216      4.0    844     0.00       0     62.0
 150    4:20   39.8    81    2.4   228      4.5    844     0.00       1     61.8
 150    4:30   38.1    83    3.2   274      5.3    844     0.00       3     61.6
 150    4:40   37.9    85    2.8   167      5.0    844     0.00       8     61.4
 150    4:50   39.2    84    2.2   120      5.3    844     0.00      20     61.2
 150    5:00   39.9    82    1.9   102      4.2    844     0.00      39     61.0
 150    5:10   40.4    80    2.9   116      4.2    845     0.00      66     60.8
 150    5:20   42.2    78    1.3   131      3.1    845     0.00      98     60.6
 150    5:30   44.3    73    1.2   118      2.5    845     0.00     127     60.4
 150    5:40   46.4    69    1.4    38      3.0    845     0.00     154     60.3
 150    5:50   47.4    68    0.4     0      1.2    845     0.00     180     60.2
 150    6:00   48.8    65    1.2    17      2.7    845     0.00     217     60.2
 150    6:10   50.1    63    1.2    96      2.5    845     0.00     249     60.3
 150    6:20   51.4    60    1.4   258      3.1    845     0.00     279     60.3
 150    6:30   51.2    61    1.7   278      3.2    845     0.00     315     60.4
 150    6:40   52.7    58    1.0   292      2.5    845     0.00     348     60.5
 150    6:50   54.4    54    1.2   320      3.2    845     0.00     382     60.7
 150    7:00   55.8    51    1.4   302      3.1    846     0.00     415     61.0
 150    7:10   56.9    48    1.2   316      2.5    845     0.00     449     61.3
 150    7:20   59.1    44    1.4   285      3.1    846     0.00     481     61.7
 150    7:30   59.3    42    1.5   302      3.4    846     0.00     513     62.1
 150    7:40   60.6    41    2.1   288      5.0    846     0.00     544     62.6
 150    7:50   61.2    40    2.5   295      5.8    846     0.00     575     63.1
 150    8:00   61.6    38    3.6   317      6.7    846     0.00     606     63.7
 150    8:10   62.6    37    2.9   341      5.9    846     0.00     635     64.3
 150    8:20   63.1    36    2.6   333      6.2    845     0.00     664     65.1
 150    8:30   64.1    35    3.5   326      7.4    845     0.00     692     65.9
 150    8:40   64.8    34    2.8   318      6.3    845     0.00     719     66.7
 150    8:50   66.3    32    3.2   334      6.3    846     0.00     747     67.6
 150    9:00   67.0    30    2.8   303      5.5    845     0.00     771     68.4
 150    9:10   68.6    28    1.5    99      4.3    845     0.00     795     69.3
 150    9:20   70.1    27    3.5   210      9.3    845     0.00     821     70.2
 150    9:30   70.8    25    3.4   206      7.1    845     0.00     844     71.2
 150    9:40   71.9    23    5.8   218     13.9    846     0.00     866     72.1
 150    9:50   72.6    21    7.2   197     14.5    845     0.00     887     73.0
 150   10:00   73.8    20    9.0   210     15.6    845     0.00     908     73.9
 150   10:10   73.8    20    8.7   206     15.8    845     0.00     926     74.8
 150   10:20   74.3    19    9.7   198     18.6    845     0.00     950     75.6
 150   10:30   74.4    19    9.3   208     19.6    845     0.00     969     76.4
 150   10:40   74.1    19    7.0   219     13.3    845     0.00     990     77.2
 150   10:50   75.0    19    7.9   234     15.4    845     0.00    1024     78.0
 150   11:00   75.2    19    8.9   204     15.3    846     0.00     855     78.9
 150   11:10   74.5    19    9.2   216     19.4    846     0.00     868     79.7
 150   11:20  999.0   999  999.0   999    999.0    999    999.00     999    999.0
 150   11:30   76.1    18    8.3   203     21.3    845     0.00    1108     81.1
 150   11:40   76.1    17    9.9   211     16.4    845     0.00    1096     81.8
 150   11:50   77.5    16   10.3   241     18.6    845     0.00    1048     82.5
 150   12:00   76.6    16    9.1   241     19.1    845     0.00    1046     83.2
 150   12:10   77.6    15    9.5   220     15.6    845     0.00     995     83.9
 150   12:20   76.9    15    8.9   238     16.4    845     0.00    1011     84.5
 150   12:30   77.3    15   10.0   198     20.7    845     0.00    1030     85.1
 150   12:40   77.2    15    7.3   211     15.1    845     0.00    1060     85.6
 150   12:50   77.3    15    9.1   209     14.7    845     0.00     839     86.3
 150   13:00   78.2    14    9.1   231     14.8    845     0.00    1037     86.7
 150   13:10   77.4    15    9.4   238     15.9    845     0.00     922     87.1
 150   13:20   78.4    15    8.3   219     14.3    845     0.00    1032     87.5
 150   13:30   78.2    14    5.9   208     11.5    845     0.00     575     87.9
 150   13:40   76.6    15    9.1   206     15.7    845     0.00     627     88.3
 150   13:50   77.5    15    8.6   205     18.0    845     0.00     767     88.4
 150   14:00   78.8    14    6.9   235     16.1    844     0.00     983     88.3
 150   14:10   78.9    14    9.6   209     18.4    844     0.00     891     88.4
 150   14:20   76.4    14    8.4   263     16.4    844     0.00     248     88.6
 150   14:30   76.5    14    5.7   235     11.6    844     0.00     546     88.7
 150   14:40   77.4    14    7.8   194     15.1    844     0.00     461     88.5
 150   14:50   78.0    13    6.0   220     10.7    844     0.00     940     88.3
 150   15:00   79.7    12    9.4   221     15.9    844     0.00     832     88.2
 150   15:10   78.7    12    7.7   242     14.1    844     0.00     726     88.3
 150   15:20   78.8    13    8.2   243     14.0    844     0.00     666     88.4
 150   15:30   78.6    12    9.9   281     16.7    844     0.00     707     88.5
 150   15:40   77.9    12    8.6   277     13.2    844     0.00     414     88.5
 150   15:50   76.2    12    8.3   281     14.1    844     0.00     271     88.4
 150   16:00   77.8    12   11.0   288     18.1    844     0.00     653     88.1
 150   16:10   77.8    12   10.3   272     19.5    844     0.00     461     87.8
 150   16:20   77.2    13   12.9   298     20.5    844     0.00     552     87.6
 150   16:30   77.5    12   10.9   301     16.7    844     0.00     494     87.3
 150   16:40   77.5    12   10.7   303     17.0    844     0.00     443     87.1
 150   16:50   77.4    12   11.6   295     18.5    844     0.00     393     86.8
 150   17:00   76.3    12   11.6   289     18.8    844     0.00     204     86.6
 150   17:10   76.1    12   11.8   292     29.5    843     0.00     296     86.2
 150   17:20   76.2    12   13.2   287     19.1    843     0.00     324     85.8
 150   17:30   76.1    12   10.7   273     15.6    843     0.00     289     85.4
 150   17:40   76.0    12    9.9   291     15.6    843     0.00     251     84.9
 150   17:50   75.3    13   10.1   306     16.0    843     0.00     213     84.5
 150   18:00   75.1    13    9.8   301     15.0    844     0.00     177     84.1
 150   18:10   74.5    13   10.1   290     15.4    844     0.00     146     83.7
 150   18:20   74.0    13    6.4   300     11.1    844     0.00      92     83.3

Return to Carson Sink graphs page.


Western Regional Climate Center,wrcc@dri.edu